Time;durP1;ratioP1;P1;durP2;ratioP2;P2;SDS_P1;SDS_P2;PMS_P1;PMS_P2;Temp;Humidity;BMP_temperature;BMP_pressure;BME280_temperature;BME280_humidity;BME280_pressure;Samples;Min_cycle;Max_cycle;Signal;HPM_P1;HPM_P2
2023/09/11 00:00:01;;;;;;;;;;;;;;;21.49;60.99;97373.23;599226;237;65023;-68
2023/09/11 00:02:30;;;;;;;;;;;;;;;21.50;60.78;97366.03;599298;237;44525;-67
2023/09/11 00:04:57;;;;;;;;;;;;;;;21.47;60.74;97367.36;599250;237;64964;-67
2023/09/11 00:07:25;;;;;;;;;;;;;;;21.47;60.87;97362.02;599267;237;62775;-67
2023/09/11 00:09:52;;;;;;;;;;;;;;;21.47;60.68;97363.86;599274;237;67048;-67
2023/09/11 00:12:20;;;;;;;;;;;;;;;21.47;60.73;97364.69;599239;237;66937;-67
2023/09/11 00:14:47;;;;;;;;;;;;;;;21.48;60.84;97360.14;599245;237;64933;-67
2023/09/11 00:17:15;;;;;;;;;;;;;;;21.47;60.82;97367.36;599228;237;64311;-67
2023/09/11 00:19:42;;;;;;;;;;;;;;;21.47;60.64;97367.36;599269;237;64858;-67
2023/09/11 00:22:10;;;;;;;;;;;;;;;21.47;60.63;97371.88;599264;237;62766;-67
2023/09/11 00:24:37;;;;;;;;;;;;;;;21.47;60.60;97364.69;599234;237;65225;-67
2023/09/11 00:27:05;;;;;;;;;;;;;;;21.46;60.81;97371.09;599236;237;64993;-67
2023/09/11 00:29:32;;;;;;;;;;;;;;;21.47;60.66;97370.03;599258;237;62664;-67
2023/09/11 00:32:00;;;;;;;;;;;;;;;21.45;60.68;97358.80;599254;237;64864;-67
2023/09/11 00:34:29;;;;;;;;;;;;;;;21.47;60.56;97363.86;599278;237;67421;-67
2023/09/11 00:36:57;;;;;;;;;;;;;;;21.47;60.34;97363.86;599249;237;65847;-67
2023/09/11 00:39:24;;;;;;;;;;;;;;;21.47;60.42;97362.02;599246;237;67010;-67
2023/09/11 00:41:52;;;;;;;;;;;;;;;21.46;60.55;97360.39;599237;237;67546;-68
2023/09/11 00:44:20;;;;;;;;;;;;;;;21.45;60.58;97358.80;599250;237;65112;-67
2023/09/11 00:46:48;;;;;;;;;;;;;;;21.46;60.50;97356.92;599256;237;67969;-67
2023/09/11 00:49:15;;;;;;;;;;;;;;;21.46;60.41;97354.25;599258;237;65084;-67
2023/09/11 00:51:43;;;;;;;;;;;;;;;21.46;60.54;97365.73;599227;237;65279;-67
2023/09/11 00:54:11;;;;;;;;;;;;;;;21.45;60.48;97358.80;599231;237;67207;-67
2023/09/11 00:56:39;;;;;;;;;;;;;;;21.46;60.34;97359.59;599270;237;64748;-67
2023/09/11 00:59:06;;;;;;;;;;;;;;;21.45;60.49;97361.47;599270;237;65197;-67
2023/09/11 01:01:34;;;;;;;;;;;;;;;21.45;60.23;97358.80;599314;237;64570;-67
2023/09/11 01:04:02;;;;;;;;;;;;;;;21.45;60.17;97360.67;599239;237;67530;-67
2023/09/11 01:06:30;;;;;;;;;;;;;;;21.45;60.10;97358.00;599236;237;62705;-67
2023/09/11 01:08:57;;;;;;;;;;;;;;;21.45;60.16;97356.13;599258;237;64908;-63
2023/09/11 01:11:25;;;;;;;;;;;;;;;21.44;60.14;97351.86;599298;237;67463;-63
2023/09/11 01:13:52;;;;;;;;;;;;;;;21.44;60.08;97357.20;599271;237;65215;-63
2023/09/11 01:16:28;;;;;;;;;;;;;;;21.44;60.04;97362.55;599209;237;67191;-63
2023/09/11 01:19:07;;;;;;;;;;;;;;;21.44;59.97;97361.72;595764;237;64494;-62
2023/09/11 01:21:47;;;;;;;;;;;;;;;21.44;59.96;97357.20;592371;239;65225;-62
2023/09/11 01:24:22;;;;;;;;;;;;;;;21.44;60.02;97362.55;599054;237;67209;-66
2023/09/11 01:27:08;;;;;;;;;;;;;;;21.43;60.02;97358.25;598955;237;66779;-66
2023/09/11 01:29:36;;;;;;;;;;;;;;;21.43;59.90;97352.11;599365;237;65347;-66
2023/09/11 01:32:05;;;;;;;;;;;;;;;21.42;59.83;97351.31;599264;237;66620;-66
2023/09/11 01:34:33;;;;;;;;;;;;;;;21.42;59.90;97359.33;599301;237;64833;-67
2023/09/11 01:37:00;;;;;;;;;;;;;;;21.43;59.82;97354.78;599289;237;62934;-66
2023/09/11 01:39:28;;;;;;;;;;;;;;;21.42;59.74;97353.98;599249;237;67151;-66
2023/09/11 01:41:57;;;;;;;;;;;;;;;21.42;59.77;97348.64;599317;237;64491;-66
2023/09/11 01:44:26;;;;;;;;;;;;;;;21.41;59.67;97352.36;598966;237;63130;-62
2023/09/11 01:46:55;;;;;;;;;;;;;;;21.42;59.79;97351.31;599150;237;66852;-62
2023/09/11 01:49:25;;;;;;;;;;;;;;;21.41;59.75;97347.02;599296;237;66891;-62
2023/09/11 01:51:55;;;;;;;;;;;;;;;21.41;59.65;97344.34;599288;237;62739;-62
2023/09/11 01:54:24;;;;;;;;;;;;;;;21.41;59.60;97349.69;599257;237;67246;-62
2023/09/11 01:56:52;;;;;;;;;;;;;;;21.42;59.56;97353.19;599302;237;64817;-66
2023/09/11 01:59:19;;;;;;;;;;;;;;;21.42;59.54;97353.19;599268;237;63006;-66
2023/09/11 02:01:47;;;;;;;;;;;;;;;21.42;59.51;97348.64;599259;237;67240;-66
2023/09/11 02:04:14;;;;;;;;;;;;;;;21.40;59.50;97348.09;599261;237;64585;-66
2023/09/11 02:06:42;;;;;;;;;;;;;;;21.41;59.53;97352.36;599275;236;65442;-66
2023/09/11 02:09:09;;;;;;;;;;;;;;;21.40;59.52;97350.77;599296;237;68015;-66
2023/09/11 02:11:37;;;;;;;;;;;;;;;21.41;59.55;97348.89;599265;237;66997;-66
2023/09/11 02:14:04;;;;;;;;;;;;;;;21.40;59.45;97345.41;599267;237;64913;-66
2023/09/11 02:16:33;;;;;;;;;;;;;;;21.40;59.41;97345.41;599227;237;65837;-66
2023/09/11 02:19:00;;;;;;;;;;;;;;;21.40;59.23;97348.09;599283;237;66793;-67
2023/09/11 02:21:28;;;;;;;;;;;;;;;21.41;59.07;97338.19;599276;237;65758;-66
2023/09/11 02:23:56;;;;;;;;;;;;;;;21.40;59.40;97340.07;599278;237;64845;-66
2023/09/11 02:26:23;;;;;;;;;;;;;;;21.39;59.10;97341.15;599239;237;64868;-66
2023/09/11 02:28:51;;;;;;;;;;;;;;;21.39;59.14;97333.13;599272;237;65227;-66
2023/09/11 02:31:19;;;;;;;;;;;;;;;21.39;59.22;97335.80;599263;237;67197;-62
2023/09/11 02:33:46;;;;;;;;;;;;;;;21.39;59.37;97338.48;599269;237;64726;-62
2023/09/11 02:36:14;;;;;;;;;;;;;;;21.38;59.13;97331.50;599249;237;65779;-62
2023/09/11 02:38:41;;;;;;;;;;;;;;;21.39;59.12;97333.13;599255;237;64745;-62
2023/09/11 02:41:09;;;;;;;;;;;;;;;21.39;59.14;97332.30;599266;237;66939;-61
2023/09/11 02:43:36;;;;;;;;;;;;;;;21.39;59.05;97327.78;599305;237;64997;-62
2023/09/11 02:46:04;;;;;;;;;;;;;;;21.39;59.11;97334.97;599339;237;64207;-62
2023/09/11 02:48:31;;;;;;;;;;;;;;;21.38;59.14;97326.16;599287;237;64285;-62
2023/09/11 02:50:59;;;;;;;;;;;;;;;21.39;59.29;97326.95;599246;237;65673;-62
2023/09/11 02:53:26;;;;;;;;;;;;;;;21.39;59.01;97332.30;599290;237;64844;-66
2023/09/11 02:55:54;;;;;;;;;;;;;;;21.38;59.04;97325.36;599283;237;66851;-66
2023/09/11 02:58:22;;;;;;;;;;;;;;;21.39;59.01;97332.30;599281;237;63831;-67
2023/09/11 03:00:50;;;;;;;;;;;;;;;21.37;58.85;97327.23;599302;237;66860;-67
2023/09/11 03:03:17;;;;;;;;;;;;;;;21.38;59.63;97326.16;599279;237;64847;-66
2023/09/11 03:05:45;;;;;;;;;;;;;;;21.37;59.19;97329.08;599270;237;65104;-66
2023/09/11 03:08:13;;;;;;;;;;;;;;;21.37;59.93;97329.91;599304;237;64640;-62
2023/09/11 03:10:40;;;;;;;;;;;;;;;21.36;58.90;97328.28;599277;237;66810;-62
2023/09/11 03:13:08;;;;;;;;;;;;;;;21.36;58.98;97328.28;599309;237;62712;-62
2023/09/11 03:15:35;;;;;;;;;;;;;;;21.36;58.77;97330.13;598767;237;65674;-62
2023/09/11 03:18:03;;;;;;;;;;;;;;;21.36;58.87;97327.45;595420;238;66712;-62
2023/09/11 03:20:31;;;;;;;;;;;;;;;21.36;58.86;97333.63;595402;238;65375;-62
2023/09/11 03:22:59;;;;;;;;;;;;;;;21.36;58.80;97333.63;595406;238;64179;-62
2023/09/11 03:25:26;;;;;;;;;;;;;;;21.36;59.11;97335.48;595455;238;66914;-62
2023/09/11 03:27:54;;;;;;;;;;;;;;;21.36;58.77;97333.63;595407;238;65189;-62
2023/09/11 03:30:22;;;;;;;;;;;;;;;21.35;58.72;97334.68;595412;238;64464;-62
2023/09/11 03:32:51;;;;;;;;;;;;;;;21.35;59.11;97340.03;595421;238;66543;-62
2023/09/11 03:35:19;;;;;;;;;;;;;;;21.35;60.06;97336.56;595423;238;65233;-67
2023/09/11 03:37:46;;;;;;;;;;;;;;;21.34;59.99;97335.76;595447;238;64197;-67
2023/09/11 03:40:15;;;;;;;;;;;;;;;21.34;58.58;97333.09;595401;238;67448;-67
2023/09/11 03:42:43;;;;;;;;;;;;;;;21.35;58.65;97333.88;595385;238;65078;-67
2023/09/11 03:45:10;;;;;;;;;;;;;;;21.34;58.57;97334.96;595407;238;64615;-67
2023/09/11 03:47:38;;;;;;;;;;;;;;;21.34;58.82;97335.76;595412;238;67314;-67
2023/09/11 03:50:07;;;;;;;;;;;;;;;21.34;60.29;97338.44;595435;238;64997;-67
2023/09/11 03:52:35;;;;;;;;;;;;;;;21.34;59.78;97345.66;595464;238;64648;-67
2023/09/11 03:55:03;;;;;;;;;;;;;;;21.33;59.88;97342.16;595398;238;64720;-67
2023/09/11 03:57:30;;;;;;;;;;;;;;;21.32;58.86;97340.56;595425;238;65824;-67
2023/09/11 03:59:58;;;;;;;;;;;;;;;21.33;59.43;97344.83;595413;238;64383;-67
2023/09/11 04:02:26;;;;;;;;;;;;;;;21.32;59.33;97348.58;595402;238;64720;-67
2023/09/11 04:04:53;;;;;;;;;;;;;;;21.33;58.56;97349.37;595437;238;65080;-67
2023/09/11 04:07:21;;;;;;;;;;;;;;;21.32;58.60;97348.58;595402;238;67859;-67
2023/09/11 04:09:48;;;;;;;;;;;;;;;21.32;58.59;97353.92;595415;238;64531;-67
2023/09/11 04:12:17;;;;;;;;;;;;;;;21.32;59.69;97351.25;595409;238;62740;-67
2023/09/11 04:14:44;;;;;;;;;;;;;;;21.32;58.49;97345.91;595400;238;67716;-67
2023/09/11 04:17:12;;;;;;;;;;;;;;;21.33;58.59;97352.05;598410;237;66835;-67
2023/09/11 04:19:39;;;;;;;;;;;;;;;21.33;59.22;97352.84;599269;237;62589;-67
2023/09/11 04:22:07;;;;;;;;;;;;;;;21.31;59.82;97349.66;599285;237;67351;-67
2023/09/11 04:24:35;;;;;;;;;;;;;;;21.31;58.85;97349.66;599248;237;64769;-62
2023/09/11 04:27:03;;;;;;;;;;;;;;;21.31;59.26;97346.98;599263;237;63719;-62
2023/09/11 04:29:31;;;;;;;;;;;;;;;21.31;58.35;97343.48;599283;237;66993;-62
2023/09/11 04:31:59;;;;;;;;;;;;;;;21.30;58.26;97353.38;599247;237;66847;-62
2023/09/11 04:34:27;;;;;;;;;;;;;;;21.30;58.67;97356.05;599258;237;65069;-62
2023/09/11 04:36:54;;;;;;;;;;;;;;;21.31;59.43;97351.50;599255;237;64759;-67
2023/09/11 04:39:23;;;;;;;;;;;;;;;21.29;57.88;97346.44;599267;237;67804;-67
2023/09/11 04:41:51;;;;;;;;;;;;;;;21.29;58.41;97347.23;599245;237;65060;-67
2023/09/11 04:44:18;;;;;;;;;;;;;;;21.30;58.73;97356.05;599311;237;64667;-67
2023/09/11 04:46:46;;;;;;;;;;;;;;;21.29;59.53;97352.58;599309;237;66586;-67
2023/09/11 04:49:14;;;;;;;;;;;;;;;21.29;57.89;97357.13;599239;237;64954;-67
2023/09/11 04:51:41;;;;;;;;;;;;;;;21.29;58.48;97352.58;599247;237;64455;-67
2023/09/11 04:54:09;;;;;;;;;;;;;;;21.28;58.13;97355.54;599247;237;65072;-67
2023/09/11 04:56:36;;;;;;;;;;;;;;;21.29;58.41;97365.16;599298;237;65157;-67
2023/09/11 04:59:04;;;;;;;;;;;;;;;21.29;58.95;97365.16;599267;237;66811;-67
2023/09/11 05:01:33;;;;;;;;;;;;;;;21.28;58.59;97359.02;599259;237;64482;-67
2023/09/11 05:04:00;;;;;;;;;;;;;;;21.27;58.61;97356.59;599245;237;65108;-67
2023/09/11 05:06:28;;;;;;;;;;;;;;;21.28;58.95;97363.56;599278;237;64708;-67
2023/09/11 05:08:55;;;;;;;;;;;;;;;21.28;59.11;97352.87;599292;237;66816;-67
2023/09/11 05:11:23;;;;;;;;;;;;;;;21.28;58.18;97358.21;599278;237;66152;-67
2023/09/11 05:13:51;;;;;;;;;;;;;;;21.28;58.08;97353.66;599276;237;66540;-67
2023/09/11 05:16:19;;;;;;;;;;;;;;;21.27;58.99;97354.71;599169;237;67489;-67
2023/09/11 05:18:47;;;;;;;;;;;;;;;21.27;59.49;97357.38;599254;237;65069;-68
2023/09/11 05:21:15;;;;;;;;;;;;;;;21.26;58.67;97349.64;599307;237;67425;-67
2023/09/11 05:23:43;;;;;;;;;;;;;;;21.26;58.11;97353.12;599257;237;66798;-67
2023/09/11 05:26:10;;;;;;;;;;;;;;;21.26;58.71;97344.30;599272;237;62920;-67
2023/09/11 05:28:38;;;;;;;;;;;;;;;21.27;58.42;97345.89;599275;237;64628;-67
2023/09/11 05:31:07;;;;;;;;;;;;;;;21.26;58.40;97350.44;599218;237;66801;-62
2023/09/11 05:33:34;;;;;;;;;;;;;;;21.25;59.63;97335.48;599334;237;62763;-62
2023/09/11 05:36:03;;;;;;;;;;;;;;;21.26;59.42;97341.63;599343;237;64202;-62
2023/09/11 05:38:30;;;;;;;;;;;;;;;21.27;59.72;97345.89;599276;237;66526;-62
2023/09/11 05:40:58;;;;;;;;;;;;;;;21.25;58.00;97343.50;599274;236;65109;-62
2023/09/11 05:43:27;;;;;;;;;;;;;;;21.26;58.31;97349.64;599256;237;64476;-62
2023/09/11 05:45:55;;;;;;;;;;;;;;;21.25;58.58;97342.67;599223;237;64255;-62
2023/09/11 05:48:23;;;;;;;;;;;;;;;21.26;58.54;97346.97;599271;237;63065;-62
2023/09/11 05:50:50;;;;;;;;;;;;;;;21.27;59.60;97343.22;599286;237;64429;-63
2023/09/11 05:53:18;;;;;;;;;;;;;;;21.25;57.66;97348.84;599263;237;64282;-62
2023/09/11 05:55:45;;;;;;;;;;;;;;;21.25;57.70;97337.33;599305;237;62768;-62
2023/09/11 05:58:13;;;;;;;;;;;;;;;21.24;57.40;97338.41;599247;237;66765;-63
2023/09/11 06:00:40;;;;;;;;;;;;;;;21.26;59.92;97341.63;599349;237;64331;-64
2023/09/11 06:03:08;;;;;;;;;;;;;;;21.24;59.19;97341.87;599239;237;64836;-63
2023/09/11 06:05:36;;;;;;;;;;;;;;;21.25;59.46;97340.00;599288;237;66798;-63
2023/09/11 06:08:04;;;;;;;;;;;;;;;21.24;58.55;97343.75;599218;237;66904;-62
2023/09/11 06:10:33;;;;;;;;;;;;;;;21.24;58.81;97347.22;599214;237;65058;-62
2023/09/11 06:13:01;;;;;;;;;;;;;;;21.23;57.72;97340.28;604719;234;66781;-62
2023/09/11 06:15:29;;;;;;;;;;;;;;;21.24;58.86;97341.08;599702;234;64711;-62
2023/09/11 06:17:56;;;;;;;;;;;;;;;21.24;58.84;97336.53;599255;237;64982;-62
2023/09/11 06:20:24;;;;;;;;;;;;;;;21.23;58.20;97342.95;599214;237;64967;-63
2023/09/11 06:22:52;;;;;;;;;;;;;;;21.23;57.65;97337.61;601422;234;66662;-63
2023/09/11 06:25:19;;;;;;;;;;;;;;;21.23;59.51;97348.30;603034;234;62758;-62
2023/09/11 06:27:47;;;;;;;;;;;;;;;21.24;59.46;97349.10;605654;234;66618;-63
2023/09/11 06:30:15;;;;;;;;;;;;;;;21.24;60.09;97349.10;598780;234;70554;-63
2023/09/11 06:32:43;;;;;;;;;;;;;;;21.24;60.06;97351.77;599224;234;69265;-63
2023/09/11 06:35:10;;;;;;;;;;;;;;;21.25;60.31;97350.69;605927;234;64966;-63
2023/09/11 06:37:38;;;;;;;;;;;;;;;21.25;60.36;97353.37;605930;234;66826;-63
2023/09/11 06:40:09;;;;;;;;;;;;;;;21.26;60.45;97346.97;605990;234;66118;-63
2023/09/11 06:42:37;;;;;;;;;;;;;;;21.26;60.43;97352.31;605953;234;66860;-63
2023/09/11 06:45:05;;;;;;;;;;;;;;;21.25;60.53;97351.52;605929;234;66896;-64
2023/09/11 06:47:33;;;;;;;;;;;;;;;21.25;59.76;97343.50;605889;234;65084;-64
2023/09/11 06:50:00;;;;;;;;;;;;;;;21.25;59.18;97343.50;605931;234;67036;-63
2023/09/11 06:52:28;;;;;;;;;;;;;;;21.28;59.81;97350.19;605945;234;64960;-63
2023/09/11 06:54:55;;;;;;;;;;;;;;;21.27;60.09;97346.69;605304;234;64978;-63
2023/09/11 06:57:23;;;;;;;;;;;;;;;21.27;60.32;97341.34;605858;234;67217;-64
2023/09/11 06:59:53;;;;;;;;;;;;;;;21.27;59.97;97346.69;605994;234;64890;-64
2023/09/11 07:02:20;;;;;;;;;;;;;;;21.27;59.72;97346.69;605851;234;64862;-63
2023/09/11 07:04:48;;;;;;;;;;;;;;;21.27;59.75;97346.69;605861;234;67357;-64
2023/09/11 07:07:15;;;;;;;;;;;;;;;21.27;60.05;97341.34;605870;234;66959;-64
2023/09/11 07:09:43;;;;;;;;;;;;;;;21.28;60.10;97342.17;605940;234;64884;-64
2023/09/11 07:12:10;;;;;;;;;;;;;;;21.28;60.13;97336.83;606030;234;67105;-64
2023/09/11 07:14:38;;;;;;;;;;;;;;;21.28;60.15;97342.17;606017;234;66601;-65
2023/09/11 07:17:06;;;;;;;;;;;;;;;21.29;60.31;97341.89;602129;234;65735;-65
2023/09/11 07:19:33;;;;;;;;;;;;;;;21.29;60.23;97333.08;600720;236;64606;-64
2023/09/11 07:22:01;;;;;;;;;;;;;;;21.27;60.10;97336.00;600790;236;65284;-66
2023/09/11 07:24:28;;;;;;;;;;;;;;;21.30;60.32;97334.67;600688;236;64700;-63
2023/09/11 07:26:56;;;;;;;;;;;;;;;21.29;60.33;97333.87;600785;236;64749;-62
2023/09/11 07:29:26;;;;;;;;;;;;;;;21.30;60.58;97331.99;600809;236;65508;-65
2023/09/11 07:31:53;;;;;;;;;;;;;;;21.28;60.56;97329.60;600644;236;62754;-64
2023/09/11 07:34:21;;;;;;;;;;;;;;;21.29;60.08;97327.73;601181;235;67174;-65
2023/09/11 07:36:48;;;;;;;;;;;;;;;21.29;60.10;97333.08;600701;235;67049;-65
2023/09/11 07:39:16;;;;;;;;;;;;;;;21.29;57.66;97325.05;599986;236;65103;-66
2023/09/11 07:41:43;;;;;;;;;;;;;;;21.30;60.71;97329.32;600118;236;64438;-64
2023/09/11 07:44:11;;;;;;;;;;;;;;;21.31;60.05;97335.47;599969;236;68197;-63
2023/09/11 07:46:39;;;;;;;;;;;;;;;21.31;60.97;97327.45;600012;236;64928;-67
2023/09/11 07:49:06;;;;;;;;;;;;;;;21.30;60.20;97337.34;599972;235;65891;-64
2023/09/11 07:51:34;;;;;;;;;;;;;;;21.29;60.00;97333.08;599975;236;64925;-64
2023/09/11 07:54:01;;;;;;;;;;;;;;;21.29;60.14;97333.87;600055;236;62934;-64
2023/09/11 07:56:29;;;;;;;;;;;;;;;21.30;60.21;97321.30;600007;236;64986;-64
2023/09/11 07:58:57;;;;;;;;;;;;;;;21.30;60.06;97323.98;600014;236;65049;-68
2023/09/11 08:01:25;;;;;;;;;;;;;;;21.31;60.32;97325.60;600021;236;62802;-68
2023/09/11 08:03:54;;;;;;;;;;;;;;;21.32;60.56;97321.05;600062;236;67413;-68
2023/09/11 08:06:23;;;;;;;;;;;;;;;21.32;60.66;97326.40;599991;236;65092;-68
2023/09/11 08:08:50;;;;;;;;;;;;;;;21.31;60.56;97330.95;600055;236;64893;-68
2023/09/11 08:11:19;;;;;;;;;;;;;;;21.31;60.82;97320.25;599987;236;67038;-68
2023/09/11 08:13:49;;;;;;;;;;;;;;;21.31;60.74;97320.25;600007;236;67045;-68
2023/09/11 08:16:16;;;;;;;;;;;;;;;21.32;60.70;97319.17;601763;234;64748;-68
2023/09/11 08:18:44;;;;;;;;;;;;;;;21.32;61.07;97316.50;604596;234;68053;-68
2023/09/11 08:21:12;;;;;;;;;;;;;;;21.32;60.76;97318.37;604605;234;65817;-68
2023/09/11 08:23:43;;;;;;;;;;;;;;;21.32;60.90;97313.83;604518;234;64909;-68
2023/09/11 08:26:11;;;;;;;;;;;;;;;21.32;60.83;97315.70;604603;234;67235;-69
2023/09/11 08:28:38;;;;;;;;;;;;;;;21.31;60.81;97314.91;604537;234;65512;-69
2023/09/11 08:31:06;;;;;;;;;;;;;;;21.32;60.88;97299.66;604576;234;62769;-69
2023/09/11 08:33:33;;;;;;;;;;;;;;;21.32;61.04;97308.48;604616;234;67191;-69
2023/09/11 08:36:01;;;;;;;;;;;;;;;21.32;61.01;97300.46;604505;234;67824;-69
2023/09/11 08:38:29;;;;;;;;;;;;;;;21.31;60.99;97304.22;604551;234;64854;-64
2023/09/11 08:40:56;;;;;;;;;;;;;;;21.32;60.90;97295.12;605109;234;64867;-65
2023/09/11 08:43:25;;;;;;;;;;;;;;;21.33;60.90;97298.58;605738;234;67156;-64
2023/09/11 08:45:55;;;;;;;;;;;;;;;21.34;59.52;97302.88;605857;234;63009;-64
2023/09/11 08:48:24;;;;;;;;;;;;;;;21.34;60.47;97300.20;605842;234;67260;-64
2023/09/11 08:50:53;;;;;;;;;;;;;;;21.34;60.54;97305.55;605651;234;64715;-64
2023/09/11 08:53:22;;;;;;;;;;;;;;;21.34;61.33;97303.68;605854;234;64910;-64
2023/09/11 08:55:50;;;;;;;;;;;;;;;21.35;62.52;97304.48;605780;234;64420;-64
2023/09/11 08:58:19;;;;;;;;;;;;;;;21.34;63.16;97301.01;605841;234;65061;-64
2023/09/11 09:00:47;;;;;;;;;;;;;;;21.33;62.48;97299.38;605885;234;62701;-64
2023/09/11 09:03:16;;;;;;;;;;;;;;;21.33;62.72;97299.38;605762;234;65236;-64
2023/09/11 09:05:44;;;;;;;;;;;;;;;21.33;63.13;97307.41;605803;234;65057;-62
2023/09/11 09:08:13;;;;;;;;;;;;;;;21.33;63.05;97296.71;605840;234;63833;-62
2023/09/11 09:10:40;;;;;;;;;;;;;;;21.33;62.98;97299.38;605824;234;64871;-65
2023/09/11 09:13:09;;;;;;;;;;;;;;;21.32;62.46;97295.12;605882;234;64788;-62
2023/09/11 09:15:40;;;;;;;;;;;;;;;21.32;62.82;97292.45;605779;234;65892;-62
2023/09/11 09:18:08;;;;;;;;;;;;;;;21.32;62.98;97294.31;605781;234;65088;-62
2023/09/11 09:20:35;;;;;;;;;;;;;;;21.32;62.89;97289.77;605861;234;67272;-69
2023/09/11 09:23:03;;;;;;;;;;;;;;;21.32;62.45;97289.77;605862;234;64898;-66
2023/09/11 09:25:31;;;;;;;;;;;;;;;21.31;61.45;97285.50;605770;234;64752;-63
2023/09/11 09:27:59;;;;;;;;;;;;;;;21.32;61.26;97288.97;605936;234;67379;-64
2023/09/11 09:30:28;;;;;;;;;;;;;;;21.33;62.06;97285.22;605852;234;65015;-63
2023/09/11 09:32:56;;;;;;;;;;;;;;;21.33;62.06;97286.02;605823;234;64989;-63
2023/09/11 09:35:25;;;;;;;;;;;;;;;21.33;62.29;97280.67;605858;234;64848;-62
2023/09/11 09:37:54;;;;;;;;;;;;;;;21.34;61.57;97284.17;605897;234;65223;-69
2023/09/11 09:40:29;;;;;;;;;;;;;;;21.33;61.75;97275.32;605899;234;67244;-69
2023/09/11 09:42:58;;;;;;;;;;;;;;;21.33;61.58;97278.00;601979;231;63830;-67
2023/09/11 09:45:30;;;;;;;;;;;;;;;21.34;61.76;97276.15;602439;231;65249;-62
2023/09/11 09:48:09;;;;;;;;;;;;;;;21.33;59.07;97264.63;601678;234;67045;-63
2023/09/11 09:50:50;;;;;;;;;;;;;;;21.35;62.14;97270.52;601361;234;67045;-63
2023/09/11 09:53:25;;;;;;;;;;;;;;;21.34;62.01;97268.92;602187;234;65248;-64
2023/09/11 09:55:54;;;;;;;;;;;;;;;21.33;61.99;97264.63;602750;234;64473;-63
2023/09/11 09:58:28;;;;;;;;;;;;;;;21.33;61.75;97251.27;603352;234;66674;-63
2023/09/11 10:01:02;;;;;;;;;;;;;;;21.32;61.51;97251.55;602857;234;62796;-63
2023/09/11 10:03:31;;;;;;;;;;;;;;;21.32;61.48;97257.69;603687;234;64783;-62
2023/09/11 10:05:59;;;;;;;;;;;;;;;21.32;55.86;97257.69;599664;234;65566;-62
2023/09/11 10:08:27;;;;;;;;;;;;;;;21.38;56.22;97261.99;599128;237;64977;-63
2023/09/11 10:10:55;;;;;;;;;;;;;;;21.38;54.74;97242.48;599250;237;66939;-63
2023/09/11 10:13:24;;;;;;;;;;;;;;;21.39;59.65;97246.75;599069;237;66922;-62
2023/09/11 10:15:52;;;;;;;;;;;;;;;21.38;62.20;97240.61;602268;234;65104;-62
2023/09/11 10:18:20;;;;;;;;;;;;;;;21.37;63.20;97244.36;600185;234;65155;-63
2023/09/11 10:20:49;;;;;;;;;;;;;;;21.35;63.11;97235.77;602493;234;67261;-62
2023/09/11 10:23:16;;;;;;;;;;;;;;;21.35;63.51;97240.31;603545;234;62982;-63
2023/09/11 10:25:45;;;;;;;;;;;;;;;21.34;63.76;97236.05;602477;234;64885;-64
2023/09/11 10:28:20;;;;;;;;;;;;;;;21.34;63.55;97244.07;601838;234;64860;-63
2023/09/11 10:31:05;;;;;;;;;;;;;;;21.33;63.15;97231.75;605094;234;65148;-62
2023/09/11 10:33:34;;;;;;;;;;;;;;;21.32;63.42;97233.63;605624;234;65042;-62
2023/09/11 10:36:02;;;;;;;;;;;;;;;21.32;63.50;97233.63;605858;234;64807;-63
2023/09/11 10:38:31;;;;;;;;;;;;;;;21.31;63.16;97218.67;605791;234;63038;-64
2023/09/11 10:41:00;;;;;;;;;;;;;;;21.31;63.35;97224.02;605855;234;67126;-63
2023/09/11 10:43:28;;;;;;;;;;;;;;;21.32;63.00;97235.51;605746;234;67265;-64
2023/09/11 10:45:56;;;;;;;;;;;;;;;21.31;63.09;97232.04;605814;234;64983;-63
2023/09/11 10:48:30;;;;;;;;;;;;;;;21.31;63.69;97229.36;605178;234;66911;-63
2023/09/11 10:50:58;;;;;;;;;;;;;;;21.32;63.53;97238.98;604785;234;67206;-64
2023/09/11 10:53:27;;;;;;;;;;;;;;;21.33;64.05;97229.08;605799;234;65005;-64
2023/09/11 10:55:57;;;;;;;;;;;;;;;21.32;64.38;97227.48;605817;234;64978;-63
2023/09/11 10:58:25;;;;;;;;;;;;;;;21.32;64.06;97222.14;605873;234;66747;-65
2023/09/11 11:00:54;;;;;;;;;;;;;;;21.32;64.60;97212.25;605879;234;65184;-65
2023/09/11 11:03:21;;;;;;;;;;;;;;;21.32;64.62;97212.25;605906;234;64945;-62
2023/09/11 11:05:49;;;;;;;;;;;;;;;21.31;63.08;97218.67;605853;234;67367;-63
2023/09/11 11:08:17;;;;;;;;;;;;;;;21.32;62.34;97209.58;605916;234;63120;-62
2023/09/11 11:10:49;;;;;;;;;;;;;;;21.32;62.33;97209.58;605845;234;67143;-63
2023/09/11 11:13:17;;;;;;;;;;;;;;;21.33;56.84;97205.82;605879;234;64844;-63
2023/09/11 11:15:45;;;;;;;;;;;;;;;21.37;55.94;97203.44;603711;234;65208;-63
2023/09/11 11:18:18;;;;;;;;;;;;;;;21.38;57.64;97207.73;596516;237;67210;-64
2023/09/11 11:21:02;;;;;;;;;;;;;;;21.39;60.87;97195.95;595644;237;65665;-62
2023/09/11 11:23:31;;;;;;;;;;;;;;;21.37;60.40;97196.23;593478;237;64845;-61
2023/09/11 11:26:06;;;;;;;;;;;;;;;21.38;61.00;97184.46;593578;239;67021;-62
2023/09/11 11:28:40;;;;;;;;;;;;;;;21.37;61.50;97185.55;593673;239;66903;-64
2023/09/11 11:31:08;;;;;;;;;;;;;;;21.37;61.55;97180.20;593656;239;65177;-63
2023/09/11 11:33:37;;;;;;;;;;;;;;;21.37;61.72;97184.72;593556;239;67365;-62
2023/09/11 11:36:08;;;;;;;;;;;;;;;21.37;63.15;97188.22;593688;239;67080;-61
2023/09/11 11:38:36;;;;;;;;;;;;;;;21.38;62.61;97180.99;593660;237;62708;-63
2023/09/11 11:41:04;;;;;;;;;;;;;;;21.36;62.94;97183.92;596505;237;67270;-64
2023/09/11 11:43:32;;;;;;;;;;;;;;;21.37;62.47;97179.38;595240;237;67002;-64
2023/09/11 11:45:59;;;;;;;;;;;;;;;21.36;63.23;97183.92;596191;237;65218;-65
2023/09/11 11:48:29;;;;;;;;;;;;;;;21.36;62.51;97181.25;596568;237;65206;-64
2023/09/11 11:50:56;;;;;;;;;;;;;;;21.37;62.63;97179.38;596074;237;67123;-65
2023/09/11 11:53:24;;;;;;;;;;;;;;;21.37;62.57;97179.38;596075;237;65057;-64
2023/09/11 11:55:53;;;;;;;;;;;;;;;21.37;62.57;97166.83;598117;237;67066;-62
2023/09/11 11:58:20;;;;;;;;;;;;;;;21.38;63.00;97170.30;599185;237;66935;-64
2023/09/11 12:01:01;;;;;;;;;;;;;;;21.37;62.91;97177.52;599194;237;63030;-64
2023/09/11 12:03:30;;;;;;;;;;;;;;;21.39;61.88;97162.02;599194;237;64916;-64
2023/09/11 12:05:59;;;;;;;;;;;;;;;21.39;62.09;97166.55;599235;237;67129;-64
2023/09/11 12:08:27;;;;;;;;;;;;;;;21.39;62.35;97166.55;599179;237;63072;-63
2023/09/11 12:10:55;;;;;;;;;;;;;;;21.39;63.05;97161.20;599179;237;65683;-63
2023/09/11 12:13:24;;;;;;;;;;;;;;;21.37;63.33;97158.81;599215;237;64648;-63
2023/09/11 12:15:57;;;;;;;;;;;;;;;21.38;63.32;97152.38;600544;234;62714;-63
2023/09/11 12:18:22;;;;;;;;;;;;;;;21.37;63.14;97158.81;605618;234;65129;-62
2023/09/11 12:20:53;;;;;;;;;;;;;;;21.37;63.43;97153.47;605827;234;67352;-62
2023/09/11 12:23:21;;;;;;;;;;;;;;;21.35;62.96;97147.55;605738;234;64896;-63
2023/09/11 12:25:49;;;;;;;;;;;;;;;21.36;63.06;97151.84;605879;234;64848;-63
2023/09/11 12:28:17;;;;;;;;;;;;;;;21.37;62.67;97147.30;605026;234;66893;-64
2023/09/11 12:30:45;;;;;;;;;;;;;;;21.36;63.07;97133.13;605225;234;65067;-64
2023/09/11 12:33:14;;;;;;;;;;;;;;;21.37;62.68;97141.94;605888;234;67056;-63
2023/09/11 12:35:47;;;;;;;;;;;;;;;21.37;62.66;97136.59;605903;234;65080;-63
2023/09/11 12:38:12;;;;;;;;;;;;;;;21.36;62.84;97133.13;605596;234;65260;-65
2023/09/11 12:40:42;;;;;;;;;;;;;;;21.37;62.81;97137.42;605903;234;66917;-64
2023/09/11 12:43:10;;;;;;;;;;;;;;;21.37;62.77;97123.23;605855;234;65090;-64
2023/09/11 12:45:41;;;;;;;;;;;;;;;21.36;62.47;97132.30;605810;234;62671;-63
2023/09/11 12:48:08;;;;;;;;;;;;;;;21.37;62.30;97126.73;605889;234;67337;-64
2023/09/11 12:50:36;;;;;;;;;;;;;;;21.37;62.68;97124.06;605821;234;65531;-62
2023/09/11 12:53:04;;;;;;;;;;;;;;;21.37;62.76;97120.56;605856;234;65049;-64